createdAt,value
2019-01-19T00:01:44.457Z,8.40
2019-01-19T00:04:42.217Z,8.40
2019-01-19T00:07:38.926Z,9.90
2019-01-19T00:10:40.067Z,8.55
2019-01-19T00:13:29.754Z,9.23
2019-01-19T00:16:32.436Z,8.38
2019-01-19T00:19:52.050Z,9.80
2019-01-19T00:22:31.818Z,8.58
2019-01-19T00:25:37.522Z,8.98
2019-01-19T00:28:23.620Z,9.50
2019-01-19T00:31:15.868Z,8.35
2019-01-19T00:34:10.693Z,8.43
2019-01-19T00:36:44.894Z,9.03
2019-01-19T00:39:59.341Z,9.75
2019-01-19T00:42:36.174Z,9.58
2019-01-19T00:45:35.456Z,9.23
2019-01-19T00:48:21.738Z,9.60
2019-01-19T00:50:59.082Z,10.45
2019-01-19T00:53:44.699Z,9.65
2019-01-19T00:56:27.920Z,10.13
2019-01-19T00:59:13.876Z,9.80
2019-01-19T01:02:04.412Z,9.90
2019-01-19T01:05:00.315Z,10.85
2019-01-19T01:07:59.142Z,9.73
2019-01-19T01:10:45.410Z,10.78
2019-01-19T01:13:28.445Z,10.90
2019-01-19T01:16:35.530Z,10.45
2019-01-19T01:19:15.161Z,11.68
2019-01-19T01:22:27.203Z,11.57
2019-01-19T01:25:01.474Z,10.15
2019-01-19T01:27:59.359Z,11.43
2019-01-19T01:30:44.951Z,11.78
2019-01-19T01:33:46.118Z,10.63
2019-01-19T01:36:41.494Z,12.30
2019-01-19T01:39:25.155Z,12.45
2019-01-19T01:42:26.430Z,11.28
2019-01-19T01:45:12.045Z,10.88
2019-01-19T01:48:03.703Z,10.95
2019-01-19T01:50:52.648Z,12.25
2019-01-19T01:53:50.589Z,12.10
2019-01-19T01:56:20.129Z,11.95
2019-01-19T01:59:09.043Z,13.10
2019-01-19T02:01:55.747Z,11.90
2019-01-19T02:04:38.825Z,10.88
2019-01-19T02:07:27.960Z,12.40
2019-01-19T02:10:21.773Z,12.60
2019-01-19T02:13:21.776Z,12.35
2019-01-19T02:16:18.156Z,11.10
2019-01-19T02:19:23.741Z,12.23
2019-01-19T02:21:58.184Z,11.60
2019-01-19T02:24:53.602Z,11.65
2019-01-19T02:27:39.435Z,11.53
2019-01-19T02:30:34.648Z,12.05
2019-01-19T02:33:11.692Z,12.23
2019-01-19T02:36:02.167Z,12.23
2019-01-19T02:38:41.871Z,12.65
2019-01-19T02:41:24.743Z,13.03
2019-01-19T02:44:22.973Z,13.35
2019-01-19T02:47:21.618Z,12.93
2019-01-19T02:50:17.754Z,11.50
2019-01-19T02:53:21.791Z,13.38
2019-01-19T02:55:59.109Z,13.20
2019-01-19T02:58:36.239Z,13.22
2019-01-19T03:01:42.515Z,13.75
2019-01-19T03:04:19.697Z,12.10
2019-01-19T03:07:08.997Z,12.65
2019-01-19T03:10:05.225Z,13.78
2019-01-19T03:13:07.995Z,12.10
2019-01-19T03:16:09.107Z,14.50
2019-01-19T03:18:52.211Z,13.65
2019-01-19T03:21:50.651Z,13.20
2019-01-19T03:25:03.729Z,14.85
2019-01-19T03:28:00.726Z,13.55
2019-01-19T03:30:55.369Z,14.03
2019-01-19T03:33:35.366Z,15.00
2019-01-19T03:39:42.394Z,13.62
2019-01-19T03:42:36.743Z,13.72
2019-01-19T03:45:38.068Z,13.98
2019-01-19T03:48:23.323Z,14.25
2019-01-19T03:51:25.697Z,13.30
2019-01-19T03:54:02.598Z,14.20
2019-01-19T03:56:39.603Z,14.13
2019-01-19T03:59:13.798Z,13.72
2019-01-19T04:01:56.910Z,14.60
2019-01-19T04:04:52.028Z,15.30
2019-01-19T04:07:46.821Z,15.08
2019-01-19T04:10:32.841Z,15.28
2019-01-19T04:13:18.871Z,15.45
2019-01-19T04:16:01.870Z,16.97
2019-01-19T04:19:08.077Z,16.23
2019-01-19T04:21:45.083Z,15.68
2019-01-19T04:24:24.854Z,16.75
2019-01-19T04:26:54.392Z,15.68
2019-01-19T04:29:23.874Z,16.67
2019-01-19T04:31:53.439Z,16.65
2019-01-19T04:34:23.591Z,16.37
2019-01-19T04:36:53.553Z,16.97
2019-01-19T04:39:42.415Z,17.25
2019-01-19T04:42:12.383Z,19.57
2019-01-19T04:44:41.871Z,18.32
2019-01-19T04:47:11.742Z,16.77
2019-01-19T04:49:41.199Z,17.25
2019-01-19T04:52:10.717Z,19.55
2019-01-19T04:54:40.188Z,18.15
2019-01-19T04:57:09.714Z,17.55
2019-01-19T04:59:39.293Z,17.80
2019-01-19T05:02:08.834Z,18.55
2019-01-19T05:04:38.280Z,18.30
2019-01-19T05:07:07.750Z,17.98
2019-01-19T05:09:37.615Z,17.15
2019-01-19T05:12:07.106Z,16.52
2019-01-19T05:14:36.616Z,18.35
2019-01-19T05:17:06.134Z,17.57
2019-01-19T05:19:35.598Z,18.73
2019-01-19T05:22:05.086Z,18.55
2019-01-19T05:24:34.608Z,19.52
2019-01-19T05:27:04.116Z,17.57
2019-01-19T05:29:33.628Z,17.98
2019-01-19T05:32:03.194Z,18.87
2019-01-19T05:34:32.655Z,19.77
2019-01-19T05:37:02.130Z,18.80
2019-01-19T05:39:31.652Z,18.35
2019-01-19T05:42:01.107Z,18.07
2019-01-19T05:44:30.594Z,19.15
2019-01-19T05:47:00.100Z,18.30
2019-01-19T05:49:29.578Z,18.25
2019-01-19T05:51:59.094Z,20.08
2019-01-19T05:54:29.215Z,19.57
2019-01-19T05:56:58.713Z,19.23
2019-01-19T05:59:28.205Z,19.75
2019-01-19T06:01:58.310Z,19.80
2019-01-19T06:04:27.778Z,19.55
2019-01-19T06:06:57.262Z,21.45
2019-01-19T06:09:26.858Z,21.15
2019-01-19T06:11:56.360Z,21.02
2019-01-19T06:14:25.870Z,22.22
2019-01-19T06:16:55.810Z,20.50
2019-01-19T06:19:25.794Z,20.72
2019-01-19T06:21:57.156Z,21.07
2019-01-19T06:24:26.682Z,20.10
2019-01-19T06:26:56.135Z,21.50
2019-01-19T06:29:25.648Z,20.40
2019-01-19T06:31:55.264Z,21.00
2019-01-19T06:34:24.737Z,20.02
2019-01-19T06:36:55.135Z,21.42
2019-01-19T06:39:25.253Z,20.77
2019-01-19T06:41:54.725Z,20.52
2019-01-19T06:44:24.218Z,22.15
2019-01-19T06:46:53.768Z,21.37
2019-01-19T06:49:23.270Z,21.75
2019-01-19T06:51:52.747Z,21.17
2019-01-19T06:54:22.448Z,23.62
2019-01-19T06:56:51.937Z,23.02
2019-01-19T06:59:21.453Z,22.77
2019-01-19T07:01:51.047Z,22.45
2019-01-19T07:04:20.977Z,22.70
2019-01-19T07:06:50.491Z,22.20
2019-01-19T07:09:20.022Z,24.07
2019-01-19T07:11:49.978Z,25.12
2019-01-19T07:14:19.512Z,24.67
2019-01-19T07:16:49.086Z,23.25
2019-01-19T07:19:18.613Z,24.92
2019-01-19T07:21:48.089Z,23.40
2019-01-19T07:24:18.242Z,23.35
2019-01-19T07:26:47.739Z,23.85
2019-01-19T07:29:17.255Z,22.50
2019-01-19T07:31:46.774Z,23.07
2019-01-19T07:34:16.305Z,24.47
2019-01-19T07:36:45.768Z,22.13
2019-01-19T07:39:15.291Z,23.30
2019-01-19T07:41:44.767Z,22.77
2019-01-19T07:44:14.283Z,22.22
2019-01-19T07:46:44.213Z,24.27
2019-01-19T07:49:13.696Z,21.85
2019-01-19T07:51:43.210Z,21.95
2019-01-19T07:54:12.706Z,24.18
2019-01-19T07:56:42.215Z,22.37
2019-01-19T07:59:11.684Z,21.50
2019-01-19T08:01:41.191Z,22.50
2019-01-19T08:04:10.660Z,22.80
2019-01-19T08:06:40.203Z,22.42
2019-01-19T08:09:09.839Z,22.05
2019-01-19T08:11:39.310Z,21.35
2019-01-19T08:14:08.782Z,21.75
2019-01-19T08:16:38.331Z,20.52
2019-01-19T08:19:07.827Z,20.08
2019-01-19T08:21:37.332Z,19.80
2019-01-19T08:24:06.877Z,21.00
2019-01-19T08:26:36.387Z,20.37
2019-01-19T08:29:05.877Z,21.10
2019-01-19T08:31:35.656Z,21.07
2019-01-19T08:34:05.215Z,21.33
2019-01-19T08:36:34.886Z,20.93
2019-01-19T08:39:06.645Z,21.33
2019-01-19T08:41:36.115Z,21.13
2019-01-19T08:44:05.758Z,23.53
2019-01-19T08:46:35.292Z,22.60
2019-01-19T08:49:04.825Z,23.27
2019-01-19T08:51:34.295Z,20.90
2019-01-19T08:54:03.923Z,21.67
2019-01-19T08:56:33.415Z,20.40
2019-01-19T08:59:02.892Z,22.93
2019-01-19T09:01:32.490Z,21.93
2019-01-19T09:04:01.985Z,20.17
2019-01-19T09:06:31.596Z,22.53
2019-01-19T09:09:01.174Z,22.07
2019-01-19T09:11:30.677Z,21.87
2019-01-19T09:14:00.144Z,22.10
2019-01-19T09:16:30.059Z,21.70
2019-01-19T09:18:59.555Z,23.47
2019-01-19T09:21:29.146Z,23.17
2019-01-19T09:23:59.784Z,23.77
2019-01-19T09:26:29.297Z,24.13
2019-01-19T09:28:58.813Z,22.90
2019-01-19T09:31:28.345Z,23.37
2019-01-19T09:33:57.825Z,23.50
2019-01-19T09:36:27.460Z,23.40
2019-01-19T09:38:57.437Z,23.23
2019-01-19T09:41:26.935Z,22.27
2019-01-19T09:43:56.448Z,23.67
2019-01-19T09:46:25.972Z,21.10
2019-01-19T09:48:55.549Z,23.83
2019-01-19T09:51:25.027Z,22.53
2019-01-19T09:53:54.519Z,23.03
2019-01-19T09:56:24.008Z,22.43
2019-01-19T09:58:53.496Z,21.97
2019-01-19T10:01:23.248Z,22.30
2019-01-19T10:03:52.785Z,23.60
2019-01-19T10:06:22.275Z,24.67
2019-01-19T10:08:52.095Z,23.57
2019-01-19T10:11:21.612Z,23.90
2019-01-19T10:13:51.285Z,22.67
2019-01-19T10:16:20.927Z,23.03
2019-01-19T10:18:50.471Z,23.10
2019-01-19T10:21:20.325Z,23.67
2019-01-19T10:23:50.483Z,22.73
2019-01-19T10:26:19.947Z,22.13
2019-01-19T10:28:50.339Z,22.30
2019-01-19T10:31:19.858Z,22.20
2019-01-19T10:33:49.350Z,21.33
2019-01-19T10:36:18.856Z,23.33
2019-01-19T10:38:48.440Z,22.00
2019-01-19T10:41:17.961Z,21.00
2019-01-19T10:43:47.467Z,22.37
2019-01-19T10:46:17.047Z,22.33
2019-01-19T10:48:46.503Z,23.30
2019-01-19T10:51:15.986Z,23.73
2019-01-19T10:53:45.496Z,22.47
2019-01-19T10:56:14.963Z,21.90
2019-01-19T10:58:44.463Z,20.17
2019-01-19T11:01:13.966Z,20.70
2019-01-19T11:03:43.471Z,19.63
2019-01-19T11:06:12.949Z,22.33
2019-01-19T11:08:42.615Z,20.53
2019-01-19T11:11:12.139Z,19.53
2019-01-19T11:13:41.646Z,17.47
2019-01-19T11:16:11.163Z,15.93
2019-01-19T11:18:40.673Z,16.80
2019-01-19T11:21:10.182Z,17.33
2019-01-19T11:23:40.092Z,15.20
2019-01-19T11:26:09.870Z,16.40
2019-01-19T11:28:39.352Z,15.90
2019-01-19T11:31:09.045Z,16.17
2019-01-19T11:33:38.541Z,16.67
2019-01-19T11:36:08.050Z,16.53
2019-01-19T11:38:37.581Z,15.40
2019-01-19T11:41:07.057Z,15.43
2019-01-19T11:43:36.556Z,16.27
2019-01-19T11:46:06.452Z,17.43
2019-01-19T11:48:36.089Z,16.20
2019-01-19T11:51:05.660Z,17.57
2019-01-19T11:53:35.292Z,17.83
2019-01-19T11:56:11.931Z,17.10
2019-01-19T11:58:36.126Z,17.67
2019-01-19T12:01:07.314Z,18.23
2019-01-19T12:03:37.106Z,14.53
2019-01-19T12:06:06.705Z,15.80
2019-01-19T12:08:36.621Z,14.60
2019-01-19T12:11:06.306Z,14.17
2019-01-19T12:13:35.867Z,13.70
2019-01-19T12:16:05.554Z,15.17
2019-01-19T12:18:35.080Z,15.40
2019-01-19T12:21:04.642Z,14.57
2019-01-19T12:23:34.341Z,13.93
2019-01-19T12:26:03.824Z,13.03
2019-01-19T12:28:33.322Z,13.70
2019-01-19T12:31:03.178Z,14.20
2019-01-19T12:33:32.681Z,14.10
2019-01-19T12:36:02.181Z,13.73
2019-01-19T12:38:31.724Z,14.00
2019-01-19T12:41:01.218Z,13.40
2019-01-19T12:43:30.689Z,13.60
2019-01-19T12:46:00.313Z,13.07
2019-01-19T12:48:30.062Z,13.87
2019-01-19T12:50:59.671Z,13.27
2019-01-19T12:53:30.175Z,11.57
2019-01-19T12:55:59.656Z,11.47
2019-01-19T12:58:29.159Z,12.03
2019-01-19T13:00:58.778Z,10.80
2019-01-19T13:03:28.263Z,11.23
2019-01-19T13:06:08.582Z,12.13
2019-01-19T13:08:38.116Z,11.03
2019-01-19T13:11:42.596Z,12.13
2019-01-19T13:14:12.085Z,10.60
2019-01-19T13:17:05.543Z,11.23
2019-01-19T13:19:54.022Z,10.97
2019-01-19T13:22:37.193Z,11.67
2019-01-19T13:25:16.901Z,11.50
2019-01-19T13:28:14.853Z,10.20
2019-01-19T13:31:03.708Z,10.83
2019-01-19T13:33:57.499Z,11.33
2019-01-19T13:36:55.448Z,11.17
2019-01-19T13:39:29.729Z,11.97
2019-01-19T13:42:23.335Z,12.57
2019-01-19T13:45:34.081Z,11.90
2019-01-19T13:48:33.936Z,10.40
2019-01-19T13:51:20.019Z,11.13
2019-01-19T13:54:00.153Z,12.60
2019-01-19T13:57:02.256Z,12.47
2019-01-19T14:00:02.863Z,11.63
2019-01-19T14:03:26.149Z,11.53
2019-01-19T14:06:03.136Z,11.13
2019-01-19T14:09:02.873Z,10.87
2019-01-19T14:12:04.387Z,11.17
2019-01-19T14:14:44.195Z,11.40
2019-01-19T14:17:27.416Z,11.20
2019-01-19T14:20:19.741Z,12.40
2019-01-19T14:23:22.561Z,12.37
2019-01-19T14:26:28.126Z,13.27
2019-01-19T14:29:30.956Z,13.63
2019-01-19T14:32:20.198Z,13.50
2019-01-19T14:35:15.410Z,13.17
2019-01-19T14:38:24.351Z,14.50
2019-01-19T14:41:16.474Z,13.53
2019-01-19T14:44:10.972Z,13.83
2019-01-19T14:47:00.222Z,13.90
2019-01-19T14:49:46.026Z,14.87
2019-01-19T14:52:23.500Z,13.57
2019-01-19T14:55:00.358Z,13.43
2019-01-19T14:57:43.094Z,13.60
2019-01-19T15:00:38.521Z,13.43
2019-01-19T15:03:20.904Z,14.60
2019-01-19T15:06:12.738Z,15.57
2019-01-19T15:09:09.423Z,13.70
2019-01-19T15:12:26.033Z,13.17
2019-01-19T15:15:06.079Z,14.10
2019-01-19T15:17:54.941Z,14.13
2019-01-19T15:20:37.610Z,13.77
2019-01-19T15:23:18.280Z,15.70
2019-01-19T15:26:09.843Z,14.10
2019-01-19T15:29:13.404Z,14.15
2019-01-19T15:32:15.547Z,14.53
2019-01-19T15:35:21.181Z,12.53
2019-01-19T15:38:10.217Z,12.50
2019-01-19T15:40:59.510Z,12.75
2019-01-19T15:44:08.388Z,13.55
2019-01-19T15:47:05.706Z,13.30
2019-01-19T15:50:03.123Z,15.72
2019-01-19T15:52:51.996Z,15.03
2019-01-19T15:55:38.665Z,14.80
2019-01-19T15:58:43.131Z,14.35
2019-01-19T16:01:57.731Z,15.00
2019-01-19T16:05:02.193Z,15.20
2019-01-19T16:07:44.599Z,14.50
2019-01-19T16:10:47.040Z,12.82
2019-01-19T16:13:23.673Z,12.80
2019-01-19T16:16:33.397Z,15.18
2019-01-19T16:19:25.078Z,14.83
2019-01-19T16:22:38.629Z,14.85
2019-01-19T16:25:21.453Z,15.03
2019-01-19T16:28:25.907Z,17.55
2019-01-19T16:31:30.177Z,15.48
2019-01-19T16:34:40.263Z,16.70
2019-01-19T16:37:33.376Z,17.80
2019-01-19T16:40:22.876Z,17.10
2019-01-19T16:42:57.618Z,18.20
2019-01-19T16:45:55.097Z,17.75
2019-01-19T16:48:49.924Z,18.02
2019-01-19T16:51:47.015Z,18.98
2019-01-19T16:54:27.306Z,17.80
2019-01-19T16:57:23.637Z,19.62
2019-01-19T17:00:07.848Z,20.82
2019-01-19T17:02:56.956Z,20.65
2019-01-19T17:05:50.035Z,23.57
2019-01-19T17:08:36.024Z,28.67
2019-01-19T17:11:27.819Z,28.57
2019-01-19T17:14:29.561Z,29.25
2019-01-19T17:17:40.000Z,27.35
2019-01-19T17:20:25.916Z,23.83
2019-01-19T17:23:20.860Z,23.73
2019-01-19T17:26:17.569Z,20.37
2019-01-19T17:29:09.801Z,21.70
2019-01-19T17:31:49.351Z,21.57
2019-01-19T17:34:40.660Z,21.00
2019-01-19T17:37:23.543Z,19.90
2019-01-19T17:40:27.024Z,19.20
2019-01-19T17:43:07.075Z,18.75
2019-01-19T17:46:01.905Z,18.20
2019-01-19T17:48:51.389Z,17.75
2019-01-19T17:51:43.341Z,17.65
2019-01-19T17:54:47.618Z,19.52
2019-01-19T17:57:41.011Z,18.25
2019-01-19T18:00:17.941Z,18.27
2019-01-19T18:03:03.778Z,18.90
2019-01-19T18:05:44.043Z,23.20
2019-01-19T18:08:29.227Z,23.25
2019-01-19T18:11:20.218Z,21.25
2019-01-19T18:14:09.337Z,21.70
2019-01-19T18:17:19.755Z,21.45
2019-01-19T18:20:40.559Z,21.40
2019-01-19T18:23:30.121Z,21.50
2019-01-19T18:26:21.019Z,20.48
2019-01-19T18:29:28.821Z,21.45
2019-01-19T18:32:11.867Z,21.85
2019-01-19T18:35:01.244Z,20.68
2019-01-19T18:37:35.455Z,18.20
2019-01-19T18:40:32.394Z,18.48
2019-01-19T18:43:36.112Z,18.17
2019-01-19T18:46:15.906Z,18.07
2019-01-19T18:49:26.069Z,19.37
2019-01-19T18:52:12.400Z,20.35
2019-01-19T18:55:13.338Z,24.80
2019-01-19T18:58:19.682Z,23.25
2019-01-19T19:01:12.922Z,20.60
2019-01-19T19:04:01.669Z,19.98
2019-01-19T19:07:29.706Z,20.40
2019-01-19T19:10:32.419Z,19.07
2019-01-19T19:13:18.490Z,19.55
2019-01-19T19:16:19.011Z,19.62
2019-01-19T19:19:21.909Z,18.07
2019-01-19T19:22:16.717Z,18.05
2019-01-19T19:25:22.728Z,19.10
2019-01-19T19:28:23.827Z,19.48
2019-01-19T19:31:12.754Z,18.85
2019-01-19T19:33:56.274Z,16.80
2019-01-19T19:36:44.981Z,18.32
2019-01-19T19:39:36.640Z,18.23
2019-01-19T19:42:28.435Z,18.80
2019-01-19T19:45:17.535Z,18.07
2019-01-19T19:48:23.638Z,18.32
2019-01-19T19:51:35.918Z,16.85
2019-01-19T19:54:06.922Z,16.77
2019-01-19T19:56:35.247Z,18.75
2019-01-19T19:59:04.989Z,18.00
2019-01-19T20:01:34.490Z,17.45
2019-01-19T20:04:04.141Z,17.90
2019-01-19T20:06:33.664Z,19.10
2019-01-19T20:09:03.437Z,18.60
2019-01-19T20:11:33.597Z,18.90
2019-01-19T20:14:03.619Z,17.90
2019-01-19T20:16:33.125Z,19.07
2019-01-19T20:19:04.513Z,19.65
2019-01-19T20:21:34.033Z,18.27
2019-01-19T20:24:03.775Z,18.85
2019-01-19T20:26:33.267Z,19.87
2019-01-19T20:29:02.928Z,20.70
2019-01-19T20:31:32.419Z,18.45
2019-01-19T20:34:02.375Z,18.62
2019-01-19T20:36:32.031Z,20.68
2019-01-19T20:39:01.615Z,19.32
2019-01-19T20:41:31.113Z,19.82
2019-01-19T20:44:00.816Z,19.67
2019-01-19T20:46:30.595Z,19.90
2019-01-19T20:49:00.073Z,19.27
2019-01-19T20:51:29.634Z,19.35
2019-01-19T20:53:59.199Z,20.20
2019-01-19T20:56:28.655Z,19.57
2019-01-19T20:58:58.425Z,21.70
2019-01-19T21:01:27.933Z,19.70
2019-01-19T21:03:57.403Z,20.25
2019-01-19T21:06:26.994Z,21.15
2019-01-19T21:08:56.510Z,23.77
2019-01-19T21:11:25.971Z,22.35
2019-01-19T21:13:55.477Z,21.07
2019-01-19T21:16:24.933Z,19.77
2019-01-19T21:18:54.611Z,20.00
2019-01-19T21:21:24.329Z,20.32
2019-01-19T21:23:56.990Z,21.25
2019-01-19T21:26:26.459Z,20.90
2019-01-19T21:28:55.972Z,22.13
2019-01-19T21:31:25.437Z,23.32
2019-01-19T21:33:55.055Z,23.07
2019-01-19T21:36:24.589Z,26.02
2019-01-19T21:38:54.081Z,25.23
2019-01-19T21:41:23.570Z,24.32
2019-01-19T21:43:53.594Z,27.22
2019-01-19T21:46:23.128Z,27.37
2019-01-19T21:48:52.605Z,25.15
2019-01-19T21:51:22.145Z,26.07
2019-01-19T21:53:51.628Z,25.05
2019-01-19T21:56:21.105Z,25.35
2019-01-19T21:58:50.660Z,23.35
2019-01-19T22:01:20.147Z,24.75
2019-01-19T22:03:50.144Z,23.57
2019-01-19T22:06:19.784Z,23.90
2019-01-19T22:08:49.269Z,22.98
2019-01-19T22:11:18.771Z,23.02
2019-01-19T22:13:48.276Z,23.22
2019-01-19T22:16:17.774Z,21.27
2019-01-19T22:18:47.245Z,21.70
2019-01-19T22:21:16.812Z,22.70
2019-01-19T22:23:46.291Z,21.33
2019-01-19T22:26:17.443Z,21.20
2019-01-19T22:28:47.569Z,22.90
2019-01-19T22:31:17.048Z,25.52
2019-01-19T22:33:46.533Z,23.60
2019-01-19T22:36:16.047Z,22.48
2019-01-19T22:38:45.542Z,22.98
2019-01-19T22:41:15.031Z,20.75
2019-01-19T22:43:44.545Z,22.77
2019-01-19T22:46:14.044Z,24.00
2019-01-19T22:48:43.540Z,23.87
2019-01-19T22:51:13.548Z,24.77
2019-01-19T22:53:43.008Z,23.73
2019-01-19T22:56:12.905Z,24.72
2019-01-19T22:58:42.423Z,23.30
2019-01-19T23:01:20.356Z,23.10
2019-01-19T23:03:49.862Z,23.00
2019-01-19T23:06:19.354Z,23.92
2019-01-19T23:08:48.849Z,21.70
2019-01-19T23:11:19.072Z,23.92
2019-01-19T23:13:48.603Z,22.80
2019-01-19T23:16:18.466Z,22.55
2019-01-19T23:18:47.994Z,22.62
2019-01-19T23:21:17.485Z,22.85
2019-01-19T23:23:46.993Z,21.50
2019-01-19T23:26:18.338Z,24.55
2019-01-19T23:28:47.807Z,22.93
2019-01-19T23:31:17.385Z,21.87
2019-01-19T23:33:46.977Z,21.90
2019-01-19T23:36:16.484Z,22.42
2019-01-19T23:38:45.966Z,21.90
2019-01-19T23:41:15.517Z,23.35
2019-01-19T23:43:45.445Z,24.25
2019-01-19T23:46:14.977Z,23.10
2019-01-19T23:48:44.495Z,24.50
2019-01-19T23:51:13.999Z,21.87
2019-01-19T23:53:43.675Z,22.00
2019-01-19T23:56:13.375Z,23.90
2019-01-19T23:58:42.886Z,23.65
